Airfield :
LOGIN :

Register | Disclaimer

   EN    FR    IT 

 










Legend :    VFR   Marginal VFR   IFR   Intensive IFR   Very Intensive IFR
Visi :
Ceiling :
>= 8 km
>= 3000ft
5 to 8 km
1000 to 3000 ft
1500m to 5 km
500 to 1000 ft
800 to 1500m
200 to 500 ft
< 800m
< 200 ft
Symbols :   Thunderstorms  Fog  Heavy snow  Heavy precipitations  Wind > 20 kt
SIGMETs :     Misc.  Thunderstorms  Icing  Turbulence  Mountain Waves  Volcanic Ashes







- Airport Elevation : -15 ft
- IATA code : RTM


EHRD - Rotterdam Zestienhoven

CURRENT METAR :
  • 130825Z AUTO 08009KT 8000 FEW007 00/M01 Q1022 BECMG 9999

EXPIRED METARs :
  • 130755Z AUTO 08009KT 7000 FEW007 00/M01 Q1022 NOSIG
  • 130725Z AUTO 08008KT 050V110 8000 FEW007 01/M01 Q1022 NOSIG
  • 130655Z AUTO 08008KT 9000 NCD 01/M01 Q1021 NOSIG
  • 130625Z AUTO 08009KT 9999 NCD 01/M01 Q1021 NOSIG
  • 130555Z AUTO 08008KT 9999 NCD 00/M01 Q1021 NOSIG

TAF TAF EHRD
Valid from the 13 at 06:00 until the 14 at 12:00 UTC


130514Z 1306/1412 09010KT CAVOK
BECMG 1318/1321 07008KT BKN018
PROB30
TEMPO 1400/1410 7000 BKN007
No reported NOTAMs for that airfield.



MET'MAP, your aeronautical weather chart ! - Copyright ORBIFLY December 2007 - Disclaimer

ORBIFLY MET'MAP TEAM :

Programming & Development : Alexandra Zaïnal
Concept & Development : Baudouin d'Aumeries
Co-Development & Prog : Marc-Olivier Méhu
Technical & hardware support : Manuel Goepfert

Contact : metmap@orbifly.com




SOURCES & CREDITS :

   NOAA